createdAt,value
2023-02-11T00:01:07.164Z,99595.59
2023-02-11T00:03:34.441Z,99595.81
2023-02-11T00:06:04.403Z,99596.06
2023-02-11T00:08:31.985Z,99591.94
2023-02-11T00:10:59.212Z,99592.53
2023-02-11T00:13:26.848Z,99594.63
2023-02-11T00:15:55.906Z,99593.81
2023-02-11T00:18:23.436Z,99601.06
2023-02-11T00:20:50.598Z,99597.78
2023-02-11T00:23:17.781Z,99603.16
2023-02-11T00:25:45.955Z,99590.88
2023-02-11T00:28:13.126Z,99594.31
2023-02-11T00:30:40.627Z,99592.31
2023-02-11T00:33:09.158Z,99586.31
2023-02-11T00:35:37.788Z,99587.56
2023-02-11T00:38:04.876Z,99587.56
2023-02-11T00:40:32.032Z,99587.97
2023-02-11T00:42:59.290Z,99584.97
2023-02-11T00:45:26.405Z,99589.75
2023-02-11T00:47:53.505Z,99586.25
2023-02-11T00:50:22.120Z,99587.44
2023-02-11T00:52:49.498Z,99583.78
2023-02-11T00:55:16.658Z,99584.16
2023-02-11T00:57:43.850Z,99579.22
2023-02-11T01:00:14.994Z,99575.53
2023-02-11T01:02:42.082Z,99569.53
2023-02-11T01:05:09.278Z,99585.88
2023-02-11T01:07:37.804Z,99581.56
2023-02-11T01:10:05.407Z,99581.78
2023-02-11T01:12:35.254Z,99590.06
2023-02-11T01:15:03.847Z,99583.91
2023-02-11T01:17:30.966Z,99565.97
2023-02-11T01:19:58.216Z,99587.44
2023-02-11T01:22:25.328Z,99582.28
2023-02-11T01:24:53.796Z,99579.00
2023-02-11T01:27:20.918Z,99571.53
2023-02-11T01:29:48.042Z,99566.19
2023-02-11T01:32:15.157Z,99570.25
2023-02-11T01:34:42.283Z,99555.59
2023-02-11T01:37:09.406Z,99555.53
2023-02-11T01:39:36.526Z,99543.53
2023-02-11T01:42:05.778Z,99544.78
2023-02-11T01:44:36.680Z,99546.63
2023-02-11T01:47:04.130Z,99547.69
2023-02-11T01:49:34.406Z,99550.59
2023-02-11T01:52:05.696Z,99534.91
2023-02-11T01:54:36.269Z,99524.84
2023-02-11T01:57:06.371Z,99526.25
2023-02-11T01:59:39.049Z,99518.19
2023-02-11T02:02:10.142Z,99512.00
2023-02-11T02:04:44.028Z,99518.19
2023-02-11T02:07:17.142Z,99504.81
2023-02-11T02:09:49.621Z,99503.75
2023-02-11T02:12:18.101Z,99504.81
2023-02-11T02:14:45.194Z,99501.97
2023-02-11T02:17:24.964Z,99504.66
2023-02-11T02:20:18.434Z,99483.22
2023-02-11T02:23:28.489Z,99498.97
2023-02-11T02:26:28.034Z,99498.97
2023-02-11T02:29:23.449Z,99488.44
2023-02-11T02:32:30.845Z,99502.72
2023-02-11T02:35:09.436Z,99503.16
2023-02-11T02:37:40.439Z,99500.47
2023-02-11T02:40:12.694Z,99499.06
2023-02-11T02:42:41.240Z,99483.44
2023-02-11T02:45:10.819Z,99500.09
2023-02-11T02:47:37.953Z,99508.75
2023-02-11T02:50:08.156Z,99514.97
2023-02-11T02:52:42.205Z,99486.94
2023-02-11T02:55:17.572Z,99512.94
2023-02-11T02:58:03.113Z,99502.84
2023-02-11T03:00:36.951Z,99503.88
2023-02-11T03:03:17.540Z,99506.34
2023-02-11T03:05:53.371Z,99498.09
2023-02-11T03:08:28.132Z,99508.66
2023-02-11T03:10:56.561Z,99505.16
2023-02-11T03:13:28.874Z,99503.22
2023-02-11T03:15:58.413Z,99487.75
2023-02-11T03:18:29.221Z,99492.03
2023-02-11T03:21:00.470Z,99489.97
2023-02-11T03:23:30.760Z,99492.56
2023-02-11T03:26:02.857Z,99487.84
2023-02-11T03:28:33.946Z,99485.66
2023-02-11T03:31:09.682Z,99461.44
2023-02-11T03:33:42.837Z,99470.88
2023-02-11T03:36:14.856Z,99473.56
2023-02-11T03:38:47.246Z,99482.78
2023-02-11T03:41:17.588Z,99479.50
2023-02-11T03:43:48.678Z,99483.22
2023-02-11T03:46:19.502Z,99492.31
2023-02-11T03:48:49.564Z,99491.16
2023-02-11T03:51:20.638Z,99490.56
2023-02-11T03:53:49.680Z,99472.50
2023-02-11T03:56:21.179Z,99490.78
2023-02-11T03:58:49.101Z,99486.94
2023-02-11T04:01:16.345Z,99492.44
2023-02-11T04:03:43.509Z,99486.34
2023-02-11T04:06:10.709Z,99486.47
2023-02-11T04:08:39.157Z,99494.09
2023-02-11T04:11:06.281Z,99493.34
2023-02-11T04:13:33.766Z,99493.44
2023-02-11T04:16:00.904Z,99483.16
2023-02-11T04:18:28.001Z,99480.69
2023-02-11T04:20:55.280Z,99487.56
2023-02-11T04:23:22.352Z,99482.19
2023-02-11T04:25:51.069Z,99477.81
2023-02-11T04:28:18.549Z,99482.22
2023-02-11T04:30:45.693Z,99488.31
2023-02-11T04:33:12.865Z,99478.84
2023-02-11T04:35:40.115Z,99468.63
2023-02-11T04:38:07.225Z,99455.22
2023-02-11T04:40:34.352Z,99455.94
2023-02-11T04:43:02.852Z,99455.56
2023-02-11T04:45:29.961Z,99458.88
2023-02-11T04:47:57.062Z,99458.63
2023-02-11T04:50:24.384Z,99460.44
2023-02-11T04:52:51.480Z,99450.28
2023-02-11T04:55:18.824Z,99452.81
2023-02-11T04:57:45.935Z,99457.59
2023-02-11T05:00:15.968Z,99451.63
2023-02-11T05:02:43.052Z,99461.56
2023-02-11T05:05:10.169Z,99460.72
2023-02-11T05:07:37.250Z,99444.69
2023-02-11T05:10:04.587Z,99460.72
2023-02-11T05:12:31.875Z,99454.75
2023-02-11T05:14:58.983Z,99456.84
2023-02-11T05:17:27.450Z,99465.13
2023-02-11T05:19:54.990Z,99464.91
2023-02-11T05:22:22.164Z,99460.59
2023-02-11T05:24:50.186Z,99463.94
2023-02-11T05:27:17.310Z,99473.81
2023-02-11T05:29:44.409Z,99468.41
2023-02-11T05:32:11.529Z,99470.22
2023-02-11T05:34:39.998Z,99463.56
2023-02-11T05:37:07.137Z,99456.09
2023-02-11T05:39:34.249Z,99454.63
2023-02-11T05:42:01.422Z,99448.22
2023-02-11T05:44:28.511Z,99428.94
2023-02-11T05:46:55.646Z,99423.16
2023-02-11T05:49:22.817Z,99428.28
2023-02-11T05:51:51.314Z,99430.19
2023-02-11T05:54:18.453Z,99432.47
2023-02-11T05:56:45.600Z,99421.38
2023-02-11T05:59:14.548Z,99424.81
2023-02-11T06:01:41.775Z,99430.47
2023-02-11T06:04:08.902Z,99430.28
2023-02-11T06:06:36.170Z,99422.88
2023-02-11T06:09:04.945Z,99432.97
2023-02-11T06:11:32.061Z,99420.34
2023-02-11T06:13:59.135Z,99431.44
2023-02-11T06:16:26.302Z,99439.34
2023-02-11T06:18:53.430Z,99435.72
2023-02-11T06:21:20.532Z,99435.94
2023-02-11T06:23:47.758Z,99430.31
2023-02-11T06:26:21.144Z,99417.78
2023-02-11T06:28:48.497Z,99408.41
2023-02-11T06:31:16.535Z,99403.50
2023-02-11T06:33:43.985Z,99419.66
2023-02-11T06:36:16.711Z,99425.28
2023-02-11T06:38:43.949Z,99423.19
2023-02-11T06:41:11.136Z,99420.81
2023-02-11T06:43:40.290Z,99428.03
2023-02-11T06:46:08.410Z,99419.00
2023-02-11T06:48:36.409Z,99431.81
2023-02-11T06:51:05.461Z,99435.88
2023-02-11T06:53:35.309Z,99441.84
2023-02-11T06:56:03.729Z,99438.78
2023-02-11T06:58:30.824Z,99440.09
2023-02-11T07:00:59.560Z,99439.00
2023-02-11T07:03:26.656Z,99435.69
2023-02-11T07:05:53.831Z,99451.72
2023-02-11T07:08:20.996Z,99446.34
2023-02-11T07:10:48.107Z,99437.91
2023-02-11T07:13:15.210Z,99418.81
2023-02-11T07:15:42.309Z,99398.19
2023-02-11T07:18:13.023Z,99419.66
2023-02-11T07:20:41.413Z,99420.34
2023-02-11T07:23:08.554Z,99416.47
2023-02-11T07:25:36.095Z,99390.03
2023-02-11T07:28:03.639Z,99382.22
2023-02-11T07:30:30.787Z,99396.34
2023-02-11T07:32:57.892Z,99406.06
2023-02-11T07:35:26.486Z,99407.56
2023-02-11T07:37:53.665Z,99410.38
2023-02-11T07:40:20.938Z,99412.56
2023-02-11T07:42:48.026Z,99388.47
2023-02-11T07:45:15.260Z,99421.94
2023-02-11T07:47:42.371Z,99434.47
2023-02-11T07:50:09.755Z,99439.63
2023-02-11T07:52:38.226Z,99448.84
2023-02-11T07:55:06.052Z,99456.44
2023-02-11T07:57:33.098Z,99456.97
2023-02-11T08:00:00.211Z,99414.47
2023-02-11T08:02:27.621Z,99435.94
2023-02-11T08:04:54.834Z,99441.47
2023-02-11T08:07:22.053Z,99449.22
2023-02-11T08:09:50.494Z,99440.22
2023-02-11T08:12:17.585Z,99444.78
2023-02-11T08:14:44.706Z,99453.81
2023-02-11T08:17:11.813Z,99443.16
2023-02-11T08:19:39.197Z,99448.56
2023-02-11T08:22:06.574Z,99453.56
2023-02-11T08:24:33.668Z,99442.22
2023-02-11T08:27:02.123Z,99439.16
2023-02-11T08:29:29.308Z,99429.19
2023-02-11T08:31:56.478Z,99428.25
2023-02-11T08:34:23.608Z,99436.16
2023-02-11T08:36:50.994Z,99436.16
2023-02-11T08:39:20.879Z,99377.56
2023-02-11T08:41:50.101Z,99441.56
2023-02-11T08:44:19.611Z,99447.75
2023-02-11T08:46:47.439Z,99464.41
2023-02-11T08:49:14.808Z,99460.41
2023-02-11T08:51:42.652Z,99478.03
2023-02-11T08:54:09.764Z,99461.84
2023-02-11T08:56:37.984Z,99471.09
2023-02-11T08:59:06.304Z,99464.31
2023-02-11T09:01:35.135Z,99471.06
2023-02-11T09:04:02.372Z,99465.25
2023-02-11T09:06:29.906Z,99468.28
2023-02-11T09:08:58.165Z,99473.22
2023-02-11T09:11:29.292Z,99447.31
2023-02-11T09:13:56.972Z,99462.19
2023-02-11T09:16:26.115Z,99445.19
2023-02-11T09:18:56.653Z,99439.81
2023-02-11T09:21:23.828Z,99450.22
2023-02-11T09:23:51.213Z,99446.88
2023-02-11T09:26:20.707Z,99458.38
2023-02-11T09:28:48.577Z,99462.00
2023-02-11T09:31:17.967Z,99457.66
2023-02-11T09:33:47.213Z,99459.97
2023-02-11T09:36:17.732Z,99455.44
2023-02-11T09:38:45.560Z,99442.31
2023-02-11T09:41:35.360Z,99456.72
2023-02-11T09:44:06.324Z,99460.59
2023-02-11T09:46:39.489Z,99448.63
2023-02-11T09:49:07.606Z,99447.25
2023-02-11T09:51:43.781Z,99445.84
2023-02-11T09:54:16.736Z,99445.25
2023-02-11T09:56:43.846Z,99430.25
2023-02-11T09:59:14.816Z,99437.84
2023-02-11T10:01:47.256Z,99449.78
2023-02-11T10:04:24.313Z,99455.88
2023-02-11T10:06:55.645Z,99450.88
2023-02-11T10:09:45.765Z,99449.47
2023-02-11T10:12:29.844Z,99450.94
2023-02-11T10:15:15.027Z,99437.59
2023-02-11T10:17:51.728Z,99447.78
2023-02-11T10:20:28.840Z,99448.47
2023-02-11T10:22:59.825Z,99447.84
2023-02-11T10:25:34.510Z,99442.72
2023-02-11T10:28:10.152Z,99442.84
2023-02-11T10:30:42.063Z,99420.59
2023-02-11T10:33:19.936Z,99429.75
2023-02-11T10:35:47.260Z,99420.41
2023-02-11T10:38:15.701Z,99422.47
2023-02-11T10:40:43.042Z,99428.47
2023-02-11T10:43:13.535Z,99420.03
2023-02-11T10:45:44.794Z,99419.44
2023-02-11T10:48:38.332Z,99406.00
2023-02-11T10:51:16.086Z,99409.94
2023-02-11T10:53:45.398Z,99416.19
2023-02-11T10:56:20.035Z,99402.47
2023-02-11T10:58:55.978Z,99402.22
2023-02-11T11:01:25.128Z,99401.88
2023-02-11T11:03:52.989Z,99408.19
2023-02-11T11:06:30.350Z,99398.47
2023-02-11T11:08:59.069Z,99386.75
2023-02-11T11:11:26.918Z,99392.25
2023-02-11T11:13:57.192Z,99393.31
2023-02-11T11:16:26.185Z,99393.69
2023-02-11T11:19:13.866Z,99386.13
2023-02-11T11:21:42.449Z,99372.44
2023-02-11T11:24:18.403Z,99363.09
2023-02-11T11:26:48.631Z,99357.19
2023-02-11T11:29:18.959Z,99357.66
2023-02-11T11:31:49.425Z,99374.53
2023-02-11T11:34:26.875Z,99385.66
2023-02-11T11:36:56.159Z,99382.59
2023-02-11T11:39:27.613Z,99374.75
2023-02-11T11:41:56.925Z,99377.91
2023-02-11T11:44:28.303Z,99379.75
2023-02-11T11:47:20.042Z,99367.16
2023-02-11T11:49:55.436Z,99366.31
2023-02-11T11:52:37.445Z,99358.13
2023-02-11T11:55:15.986Z,99365.25
2023-02-11T11:57:43.399Z,99347.66
2023-02-11T12:00:19.015Z,99330.69
2023-02-11T12:03:15.494Z,99345.69
2023-02-11T12:05:52.109Z,99347.09
2023-02-11T12:08:29.224Z,99337.75
2023-02-11T12:11:12.170Z,99346.41
2023-02-11T12:14:02.389Z,99353.19
2023-02-11T12:16:43.453Z,99351.56
2023-02-11T12:19:45.614Z,99348.50
2023-02-11T12:22:26.435Z,99358.69
2023-02-11T12:25:09.640Z,99346.28
2023-02-11T12:27:49.550Z,99349.78
2023-02-11T12:30:28.691Z,99338.91
2023-02-11T12:33:04.582Z,99336.44
2023-02-11T12:35:43.386Z,99327.63
2023-02-11T12:38:22.795Z,99324.00
2023-02-11T12:41:01.799Z,99323.41
2023-02-11T12:43:36.954Z,99323.00
2023-02-11T12:46:33.918Z,99320.59
2023-02-11T12:49:33.489Z,99310.63
2023-02-11T12:52:15.797Z,99314.84
2023-02-11T12:54:48.673Z,99313.19
2023-02-11T12:57:20.793Z,99306.88
2023-02-11T12:59:57.224Z,99302.72
2023-02-11T13:02:33.961Z,99305.84
2023-02-11T13:05:08.255Z,99310.78
2023-02-11T13:07:39.201Z,99303.84
2023-02-11T13:10:22.382Z,99317.19
2023-02-11T13:12:51.504Z,99299.19
2023-02-11T13:15:19.932Z,99295.56
2023-02-11T13:17:56.685Z,99299.22
2023-02-11T13:20:39.049Z,99297.59
2023-02-11T13:23:15.507Z,99285.88
2023-02-11T13:25:50.442Z,99289.47
2023-02-11T13:28:32.201Z,99292.06
2023-02-11T13:31:01.223Z,99296.75
2023-02-11T13:33:33.657Z,99302.63
2023-02-11T13:36:21.727Z,99303.09
2023-02-11T13:38:59.367Z,99314.44
2023-02-11T13:41:33.284Z,99307.19
2023-02-11T13:44:03.805Z,99298.97
2023-02-11T13:46:49.996Z,99309.63
2023-02-11T13:49:23.118Z,99304.84
2023-02-11T13:51:51.473Z,99302.63
2023-02-11T13:54:26.457Z,99305.44
2023-02-11T13:57:33.749Z,99310.94
2023-02-11T14:00:02.995Z,99310.38
2023-02-11T14:02:33.839Z,99306.16
2023-02-11T14:05:22.155Z,99307.88
2023-02-11T14:08:14.873Z,99301.00
2023-02-11T14:10:50.037Z,99306.22
2023-02-11T14:13:23.969Z,99297.34
2023-02-11T14:16:07.385Z,99287.53
2023-02-11T14:19:03.801Z,99297.56
2023-02-11T14:21:37.434Z,99289.41
2023-02-11T14:24:47.212Z,99294.31
2023-02-11T14:27:21.268Z,99290.09
2023-02-11T14:30:06.758Z,99291.63
2023-02-11T14:32:45.689Z,99254.28
2023-02-11T14:35:23.494Z,99289.41
2023-02-11T14:38:00.817Z,99289.88
2023-02-11T14:40:31.690Z,99284.34
2023-02-11T14:43:07.625Z,99285.50
2023-02-11T14:45:36.915Z,99287.97
2023-02-11T14:48:07.781Z,99296.19
2023-02-11T14:50:41.695Z,99287.50
2023-02-11T14:53:15.396Z,99288.56
2023-02-11T14:55:45.500Z,99294.88
2023-02-11T14:58:15.926Z,99295.94
2023-02-11T15:00:52.240Z,99285.06
2023-02-11T15:03:34.527Z,99283.28
2023-02-11T15:06:06.023Z,99288.91
2023-02-11T15:08:36.482Z,99280.84
2023-02-11T15:11:10.682Z,99280.41
2023-02-11T15:13:38.069Z,99278.25
2023-02-11T15:16:07.929Z,99275.25
2023-02-11T15:18:38.882Z,99269.63
2023-02-11T15:21:08.310Z,99278.75
2023-02-11T15:23:35.850Z,99270.56
2023-02-11T15:26:03.426Z,99271.38
2023-02-11T15:28:33.029Z,99282.50
2023-02-11T15:31:02.468Z,99287.41
2023-02-11T15:33:30.579Z,99287.50
2023-02-11T15:35:58.759Z,99285.06
2023-02-11T15:38:27.424Z,99274.28
2023-02-11T15:40:57.103Z,99271.94
2023-02-11T15:43:24.960Z,99273.56
2023-02-11T15:45:59.886Z,99292.69
2023-02-11T15:48:35.102Z,99293.72
2023-02-11T15:51:08.166Z,99302.53
2023-02-11T15:53:40.226Z,99293.59
2023-02-11T15:56:15.708Z,99309.19
2023-02-11T15:58:45.337Z,99299.56
2023-02-11T16:01:12.663Z,99311.75
2023-02-11T16:03:41.804Z,99305.91
2023-02-11T16:06:20.056Z,99310.94
2023-02-11T16:08:59.556Z,99307.56
2023-02-11T16:11:29.155Z,99308.84
2023-02-11T16:13:56.709Z,99315.03
2023-02-11T16:16:27.472Z,99309.44
2023-02-11T16:19:04.817Z,99306.72
2023-02-11T16:21:35.742Z,99315.28
2023-02-11T16:24:06.621Z,99317.25
2023-02-11T16:26:37.665Z,99331.44
2023-02-11T16:29:07.893Z,99332.38
2023-02-11T16:31:37.292Z,99333.91
2023-02-11T16:34:13.298Z,99340.59
2023-02-11T16:36:40.458Z,99340.44
2023-02-11T16:39:09.170Z,99335.78
2023-02-11T16:41:36.458Z,99343.88
2023-02-11T16:44:03.627Z,99347.38
2023-02-11T16:46:31.696Z,99340.53
2023-02-11T16:49:05.893Z,99357.25
2023-02-11T16:51:32.803Z,99359.00
2023-02-11T16:53:59.825Z,99360.06
2023-02-11T16:56:29.002Z,99372.25
2023-02-11T16:58:56.136Z,99362.19
2023-02-11T17:01:23.433Z,99364.34
2023-02-11T17:03:50.731Z,99356.19
2023-02-11T17:06:17.830Z,99363.09
2023-02-11T17:08:44.949Z,99363.78
2023-02-11T17:11:12.062Z,99369.16
2023-02-11T17:13:40.487Z,99370.97
2023-02-11T17:16:15.917Z,99375.25
2023-02-11T17:18:43.113Z,99375.72
2023-02-11T17:21:10.238Z,99375.34
2023-02-11T17:23:37.441Z,99376.13
2023-02-11T17:26:05.345Z,99374.53
2023-02-11T17:28:32.655Z,99375.56
2023-02-11T17:31:01.380Z,99377.22
2023-02-11T17:33:28.495Z,99377.06
2023-02-11T17:35:55.662Z,99382.09
2023-02-11T17:38:22.774Z,99380.38
2023-02-11T17:40:57.338Z,99377.81
2023-02-11T17:43:24.702Z,99370.63
2023-02-11T17:45:52.169Z,99376.75
2023-02-11T17:48:21.556Z,99377.81
2023-02-11T17:50:48.780Z,99397.03
2023-02-11T17:53:15.887Z,99395.28
2023-02-11T17:55:43.037Z,99388.50
2023-02-11T17:58:10.391Z,99387.34
2023-02-11T18:00:37.494Z,99394.56
2023-02-11T18:03:04.674Z,99399.63
2023-02-11T18:05:35.976Z,99390.81
2023-02-11T18:08:04.002Z,99405.34
2023-02-11T18:10:31.615Z,99396.06
2023-02-11T18:12:58.786Z,99392.56
2023-02-11T18:15:25.882Z,99398.91
2023-02-11T18:17:52.990Z,99380.28
2023-02-11T18:20:20.157Z,99391.19
2023-02-11T18:22:48.622Z,99403.00
2023-02-11T18:25:16.665Z,99401.69
2023-02-11T18:27:43.774Z,99402.19
2023-02-11T18:30:15.606Z,99398.53
2023-02-11T18:32:43.223Z,99398.31
2023-02-11T18:35:12.654Z,99397.81
2023-02-11T18:37:41.766Z,99401.59
2023-02-11T18:40:12.178Z,99411.06
2023-02-11T18:42:39.682Z,99401.59
2023-02-11T18:45:07.856Z,99408.03
2023-02-11T18:47:36.858Z,99415.88
2023-02-11T18:50:04.084Z,99415.19
2023-02-11T18:52:31.302Z,99408.38
2023-02-11T18:54:58.428Z,99414.59
2023-02-11T18:57:26.934Z,99406.75
2023-02-11T18:59:54.192Z,99412.81
2023-02-11T19:02:21.306Z,99410.63
2023-02-11T19:04:48.506Z,99408.72
2023-02-11T19:07:15.681Z,99397.16
2023-02-11T19:09:43.120Z,99395.50
2023-02-11T19:12:10.226Z,99401.69
2023-02-11T19:14:38.694Z,99411.59
2023-02-11T19:17:07.622Z,99420.25
2023-02-11T19:19:35.925Z,99419.19
2023-02-11T19:22:05.067Z,99419.41
2023-02-11T19:24:32.755Z,99422.38
2023-02-11T19:27:01.911Z,99426.22
2023-02-11T19:29:30.307Z,99435.00
2023-02-11T19:31:58.910Z,99427.75
2023-02-11T19:34:26.062Z,99434.63
2023-02-11T19:36:53.457Z,99433.25
2023-02-11T19:39:20.923Z,99446.84
2023-02-11T19:41:48.037Z,99439.22
2023-02-11T19:44:15.146Z,99431.34
2023-02-11T19:46:42.828Z,99426.56
2023-02-11T19:49:14.144Z,99421.84
2023-02-11T19:51:41.433Z,99423.50
2023-02-11T19:54:08.554Z,99419.38
2023-02-11T19:56:35.666Z,99414.38
2023-02-11T19:59:03.466Z,99411.69
2023-02-11T20:01:30.730Z,99408.19
2023-02-11T20:03:57.882Z,99407.00
2023-02-11T20:06:28.718Z,99414.97
2023-02-11T20:08:58.593Z,99416.03
2023-02-11T20:11:26.973Z,99417.31
2023-02-11T20:13:54.205Z,99420.84
2023-02-11T20:16:26.947Z,99422.47
2023-02-11T20:19:01.060Z,99414.97
2023-02-11T20:21:31.471Z,99423.63
2023-02-11T20:23:59.619Z,99414.97
2023-02-11T20:26:29.185Z,99415.66
2023-02-11T20:28:57.704Z,99426.81
2023-02-11T20:31:25.255Z,99422.66
2023-02-11T20:33:52.416Z,99425.75
2023-02-11T20:36:21.942Z,99431.72
2023-02-11T20:38:51.348Z,99440.88
2023-02-11T20:41:21.103Z,99446.72
2023-02-11T20:43:50.720Z,99441.78
2023-02-11T20:46:20.495Z,99448.19
2023-02-11T20:48:47.779Z,99420.69
2023-02-11T20:51:18.707Z,99436.16
2023-02-11T20:53:47.923Z,99439.22
2023-02-11T20:56:18.768Z,99446.13
2023-02-11T20:58:46.088Z,99440.75
2023-02-11T21:01:22.542Z,99419.78
2023-02-11T21:03:52.120Z,99444.84
2023-02-11T21:06:19.543Z,99448.16
2023-02-11T21:08:47.308Z,99431.63
2023-02-11T21:11:16.127Z,99437.00
2023-02-11T21:13:43.552Z,99428.66
2023-02-11T21:16:14.582Z,99433.00
2023-02-11T21:18:42.117Z,99428.94
2023-02-11T21:21:09.489Z,99436.44
2023-02-11T21:23:36.666Z,99435.94
2023-02-11T21:26:03.905Z,99446.09
2023-02-11T21:28:32.572Z,99439.53
2023-02-11T21:30:59.795Z,99441.66
2023-02-11T21:33:28.156Z,99446.31
2023-02-11T21:35:56.672Z,99444.34
2023-02-11T21:38:24.366Z,99456.81
2023-02-11T21:40:51.863Z,99455.97
2023-02-11T21:43:19.210Z,99461.50
2023-02-11T21:45:49.826Z,99455.03
2023-02-11T21:48:18.120Z,99452.34
2023-02-11T21:50:47.144Z,99450.72
2023-02-11T21:53:15.068Z,99433.44
2023-02-11T21:55:42.707Z,99457.50
2023-02-11T21:58:12.556Z,99472.28
2023-02-11T22:00:39.967Z,99466.06
2023-02-11T22:03:08.469Z,99463.97
2023-02-11T22:05:35.555Z,99464.78
2023-02-11T22:08:02.674Z,99457.41
2023-02-11T22:10:29.762Z,99472.63
2023-02-11T22:12:56.879Z,99466.84
2023-02-11T22:15:24.071Z,99470.78
2023-02-11T22:17:51.169Z,99470.69
2023-02-11T22:20:19.885Z,99473.47
2023-02-11T22:22:46.985Z,99472.53
2023-02-11T22:25:14.085Z,99475.34
2023-02-11T22:27:41.238Z,99475.56
2023-02-11T22:30:09.619Z,99469.59
2023-02-11T22:32:36.756Z,99476.06
2023-02-11T22:35:04.056Z,99476.28
2023-02-11T22:37:32.553Z,99469.72
2023-02-11T22:39:59.656Z,99472.50
2023-02-11T22:42:26.793Z,99470.88
2023-02-11T22:44:53.996Z,99473.78
2023-02-11T22:47:21.145Z,99469.31
2023-02-11T22:49:48.232Z,99470.59
2023-02-11T22:52:15.365Z,99465.91
2023-02-11T22:54:44.019Z,99467.31
2023-02-11T22:57:11.111Z,99468.59
2023-02-11T22:59:38.215Z,99470.69
2023-02-11T23:02:05.402Z,99466.59
2023-02-11T23:04:32.588Z,99467.63
2023-02-11T23:06:59.694Z,99474.66
2023-02-11T23:09:26.797Z,99484.16
2023-02-11T23:11:55.374Z,99489.09
2023-02-11T23:14:22.491Z,99495.88
2023-02-11T23:16:50.287Z,99492.00
2023-02-11T23:19:17.412Z,99492.97
2023-02-11T23:21:44.531Z,99484.28
2023-02-11T23:24:13.615Z,99489.91
2023-02-11T23:26:41.661Z,99480.88
2023-02-11T23:29:10.723Z,99496.78
2023-02-11T23:31:39.634Z,99491.41
2023-02-11T23:34:08.054Z,99485.66
2023-02-11T23:36:36.229Z,99481.78
2023-02-11T23:39:04.401Z,99478.88
2023-02-11T23:41:31.654Z,99478.28
2023-02-11T23:43:58.890Z,99474.03
2023-02-11T23:46:27.824Z,99482.09
2023-02-11T23:48:55.174Z,99472.00
2023-02-11T23:51:22.739Z,99491.44
2023-02-11T23:53:50.361Z,99493.09
2023-02-11T23:56:20.771Z,99495.19
2023-02-11T23:58:49.386Z,99496.38
